sensor_id;sensor_type;location;lat;lon;timestamp;temperature;humidity
360;DHT22;168;48.872;9.226;2023-06-26T00:02:03;22.60;64.60
360;DHT22;168;48.872;9.226;2023-06-26T00:04:31;22.60;64.90
360;DHT22;168;48.872;9.226;2023-06-26T00:07:00;22.60;65.10
360;DHT22;168;48.872;9.226;2023-06-26T00:09:27;22.50;65.20
360;DHT22;168;48.872;9.226;2023-06-26T00:11:54;22.50;65.40
360;DHT22;168;48.872;9.226;2023-06-26T00:14:22;22.50;65.40
360;DHT22;168;48.872;9.226;2023-06-26T00:16:49;22.50;65.10
360;DHT22;168;48.872;9.226;2023-06-26T00:19:17;22.40;65.30
360;DHT22;168;48.872;9.226;2023-06-26T00:21:44;22.40;65.60
360;DHT22;168;48.872;9.226;2023-06-26T00:24:15;22.40;65.90
360;DHT22;168;48.872;9.226;2023-06-26T00:26:42;22.40;66.00
360;DHT22;168;48.872;9.226;2023-06-26T00:29:10;22.30;66.10
360;DHT22;168;48.872;9.226;2023-06-26T00:31:38;22.30;66.10
360;DHT22;168;48.872;9.226;2023-06-26T00:34:06;22.30;66.20
360;DHT22;168;48.872;9.226;2023-06-26T00:36:33;22.30;66.30
360;DHT22;168;48.872;9.226;2023-06-26T00:39:01;22.30;66.30
360;DHT22;168;48.872;9.226;2023-06-26T00:41:30;22.30;66.20
360;DHT22;168;48.872;9.226;2023-06-26T00:43:58;22.30;66.30
360;DHT22;168;48.872;9.226;2023-06-26T00:46:26;22.30;66.30
360;DHT22;168;48.872;9.226;2023-06-26T00:48:54;22.30;66.30
360;DHT22;168;48.872;9.226;2023-06-26T00:51:22;22.30;66.40
360;DHT22;168;48.872;9.226;2023-06-26T00:53:50;22.30;66.50
360;DHT22;168;48.872;9.226;2023-06-26T00:56:18;22.30;66.40
360;DHT22;168;48.872;9.226;2023-06-26T00:58:47;22.20;66.70
360;DHT22;168;48.872;9.226;2023-06-26T01:01:15;22.10;67.00
360;DHT22;168;48.872;9.226;2023-06-26T01:03:43;22.10;67.20
360;DHT22;168;48.872;9.226;2023-06-26T01:06:13;22.10;67.20
360;DHT22;168;48.872;9.226;2023-06-26T01:08:42;22.10;67.50
360;DHT22;168;48.872;9.226;2023-06-26T01:11:10;22.00;67.60
360;DHT22;168;48.872;9.226;2023-06-26T01:13:38;22.00;67.90
360;DHT22;168;48.872;9.226;2023-06-26T01:16:09;21.90;68.00
360;DHT22;168;48.872;9.226;2023-06-26T01:18:38;21.90;68.10
360;DHT22;168;48.872;9.226;2023-06-26T01:21:09;21.80;68.30
360;DHT22;168;48.872;9.226;2023-06-26T01:23:46;21.80;68.50
360;DHT22;168;48.872;9.226;2023-06-26T01:26:19;21.80;68.70
360;DHT22;168;48.872;9.226;2023-06-26T01:28:49;21.70;68.80
360;DHT22;168;48.872;9.226;2023-06-26T01:31:17;21.70;68.80
360;DHT22;168;48.872;9.226;2023-06-26T01:33:46;21.70;68.90
360;DHT22;168;48.872;9.226;2023-06-26T01:36:14;21.70;68.90
360;DHT22;168;48.872;9.226;2023-06-26T01:38:42;21.70;69.00
360;DHT22;168;48.872;9.226;2023-06-26T01:41:10;21.70;69.10
360;DHT22;168;48.872;9.226;2023-06-26T01:44:00;21.70;69.20
360;DHT22;168;48.872;9.226;2023-06-26T01:46:36;21.60;69.30
360;DHT22;168;48.872;9.226;2023-06-26T01:49:09;21.60;69.50
360;DHT22;168;48.872;9.226;2023-06-26T01:51:43;21.60;69.60
360;DHT22;168;48.872;9.226;2023-06-26T01:54:17;21.50;69.70
360;DHT22;168;48.872;9.226;2023-06-26T01:56:48;21.50;69.80
360;DHT22;168;48.872;9.226;2023-06-26T01:59:18;21.50;69.70
360;DHT22;168;48.872;9.226;2023-06-26T02:01:46;21.50;69.70
360;DHT22;168;48.872;9.226;2023-06-26T02:04:15;21.50;69.90
360;DHT22;168;48.872;9.226;2023-06-26T02:06:42;21.50;70.00
360;DHT22;168;48.872;9.226;2023-06-26T02:09:09;21.50;69.90
360;DHT22;168;48.872;9.226;2023-06-26T02:11:37;21.40;70.00
360;DHT22;168;48.872;9.226;2023-06-26T02:14:04;21.50;69.90
360;DHT22;168;48.872;9.226;2023-06-26T02:16:33;21.50;70.00
360;DHT22;168;48.872;9.226;2023-06-26T02:19:00;21.50;70.10
360;DHT22;168;48.872;9.226;2023-06-26T02:21:28;21.50;70.00
360;DHT22;168;48.872;9.226;2023-06-26T02:23:55;21.50;69.90
360;DHT22;168;48.872;9.226;2023-06-26T02:26:22;21.60;69.70
360;DHT22;168;48.872;9.226;2023-06-26T02:28:50;21.50;69.70
360;DHT22;168;48.872;9.226;2023-06-26T02:31:18;21.50;69.80
360;DHT22;168;48.872;9.226;2023-06-26T02:33:47;21.40;69.90
360;DHT22;168;48.872;9.226;2023-06-26T02:36:15;21.40;70.00
360;DHT22;168;48.872;9.226;2023-06-26T02:38:43;21.30;70.20
360;DHT22;168;48.872;9.226;2023-06-26T02:41:10;21.30;70.60
360;DHT22;168;48.872;9.226;2023-06-26T02:43:38;21.20;70.70
360;DHT22;168;48.872;9.226;2023-06-26T02:46:05;21.20;70.90
360;DHT22;168;48.872;9.226;2023-06-26T02:48:32;21.10;71.10
360;DHT22;168;48.872;9.226;2023-06-26T02:51:01;21.00;71.50
360;DHT22;168;48.872;9.226;2023-06-26T02:53:29;21.00;71.70
360;DHT22;168;48.872;9.226;2023-06-26T02:55:57;20.90;71.90
360;DHT22;168;48.872;9.226;2023-06-26T02:58:25;20.90;72.10
360;DHT22;168;48.872;9.226;2023-06-26T03:00:52;20.90;72.20
360;DHT22;168;48.872;9.226;2023-06-26T03:03:20;20.80;72.40
360;DHT22;168;48.872;9.226;2023-06-26T03:05:47;20.80;72.60
360;DHT22;168;48.872;9.226;2023-06-26T03:08:16;20.80;72.60
360;DHT22;168;48.872;9.226;2023-06-26T03:10:43;20.80;72.70
360;DHT22;168;48.872;9.226;2023-06-26T03:13:11;20.80;72.80
360;DHT22;168;48.872;9.226;2023-06-26T03:15:38;20.80;72.90
360;DHT22;168;48.872;9.226;2023-06-26T03:18:05;20.70;73.00
360;DHT22;168;48.872;9.226;2023-06-26T03:20:33;20.70;73.10
360;DHT22;168;48.872;9.226;2023-06-26T03:23:00;20.70;73.20
360;DHT22;168;48.872;9.226;2023-06-26T03:25:29;20.70;73.30
360;DHT22;168;48.872;9.226;2023-06-26T03:27:57;20.70;73.50
360;DHT22;168;48.872;9.226;2023-06-26T03:30:24;20.60;73.80
360;DHT22;168;48.872;9.226;2023-06-26T03:32:51;20.60;73.80
360;DHT22;168;48.872;9.226;2023-06-26T03:35:19;20.60;73.90
360;DHT22;168;48.872;9.226;2023-06-26T03:37:46;20.60;74.40
360;DHT22;168;48.872;9.226;2023-06-26T03:40:14;20.50;74.30
360;DHT22;168;48.872;9.226;2023-06-26T03:42:44;20.50;74.60
360;DHT22;168;48.872;9.226;2023-06-26T03:45:11;20.50;74.60
360;DHT22;168;48.872;9.226;2023-06-26T03:47:38;20.50;74.90
360;DHT22;168;48.872;9.226;2023-06-26T03:50:06;20.50;74.70
360;DHT22;168;48.872;9.226;2023-06-26T03:52:34;20.40;74.80
360;DHT22;168;48.872;9.226;2023-06-26T03:55:02;20.40;74.90
360;DHT22;168;48.872;9.226;2023-06-26T03:57:29;20.40;74.80
360;DHT22;168;48.872;9.226;2023-06-26T03:59:58;20.40;74.90
360;DHT22;168;48.872;9.226;2023-06-26T04:02:27;20.50;75.00
360;DHT22;168;48.872;9.226;2023-06-26T04:04:54;20.40;75.20
360;DHT22;168;48.872;9.226;2023-06-26T04:07:22;20.50;75.10
360;DHT22;168;48.872;9.226;2023-06-26T04:09:49;20.50;75.00
360;DHT22;168;48.872;9.226;2023-06-26T04:12:17;20.50;74.80
360;DHT22;168;48.872;9.226;2023-06-26T04:14:44;20.60;74.70
360;DHT22;168;48.872;9.226;2023-06-26T04:17:13;20.60;74.40
360;DHT22;168;48.872;9.226;2023-06-26T04:19:40;20.70;74.50
360;DHT22;168;48.872;9.226;2023-06-26T04:22:07;20.70;74.30
360;DHT22;168;48.872;9.226;2023-06-26T04:24:35;20.70;74.20
360;DHT22;168;48.872;9.226;2023-06-26T04:27:03;20.80;74.20
360;DHT22;168;48.872;9.226;2023-06-26T04:29:31;20.80;74.20
360;DHT22;168;48.872;9.226;2023-06-26T04:31:59;20.90;74.00
360;DHT22;168;48.872;9.226;2023-06-26T04:34:28;20.90;74.10
360;DHT22;168;48.872;9.226;2023-06-26T04:36:58;20.90;74.20
360;DHT22;168;48.872;9.226;2023-06-26T04:39:25;21.00;74.20
360;DHT22;168;48.872;9.226;2023-06-26T04:41:53;21.00;74.20
360;DHT22;168;48.872;9.226;2023-06-26T04:44:21;21.00;74.30
360;DHT22;168;48.872;9.226;2023-06-26T04:46:48;21.10;74.20
360;DHT22;168;48.872;9.226;2023-06-26T04:49:18;21.20;74.20
360;DHT22;168;48.872;9.226;2023-06-26T04:51:47;21.20;74.30
360;DHT22;168;48.872;9.226;2023-06-26T04:54:17;21.30;74.60
360;DHT22;168;48.872;9.226;2023-06-26T04:56:44;21.30;74.50
360;DHT22;168;48.872;9.226;2023-06-26T04:59:13;21.40;74.50
360;DHT22;168;48.872;9.226;2023-06-26T05:01:40;21.40;74.90
360;DHT22;168;48.872;9.226;2023-06-26T05:04:08;21.50;74.60
360;DHT22;168;48.872;9.226;2023-06-26T05:06:36;21.60;74.30
360;DHT22;168;48.872;9.226;2023-06-26T05:09:05;21.60;74.00
360;DHT22;168;48.872;9.226;2023-06-26T05:11:33;21.70;74.00
360;DHT22;168;48.872;9.226;2023-06-26T05:14:01;21.80;74.00
360;DHT22;168;48.872;9.226;2023-06-26T05:16:28;21.80;74.40
360;DHT22;168;48.872;9.226;2023-06-26T05:18:56;21.90;74.00
360;DHT22;168;48.872;9.226;2023-06-26T05:21:23;22.00;73.00
360;DHT22;168;48.872;9.226;2023-06-26T05:23:52;22.20;72.90
360;DHT22;168;48.872;9.226;2023-06-26T05:26:25;22.20;72.50
360;DHT22;168;48.872;9.226;2023-06-26T05:28:54;22.30;72.70
360;DHT22;168;48.872;9.226;2023-06-26T05:31:21;22.40;72.50
360;DHT22;168;48.872;9.226;2023-06-26T05:33:52;22.50;72.50
360;DHT22;168;48.872;9.226;2023-06-26T05:36:24;22.50;72.50
360;DHT22;168;48.872;9.226;2023-06-26T05:38:55;22.60;72.60
360;DHT22;168;48.872;9.226;2023-06-26T05:41:25;22.60;72.90
360;DHT22;168;48.872;9.226;2023-06-26T05:43:53;22.60;73.00
360;DHT22;168;48.872;9.226;2023-06-26T05:46:24;22.70;72.90
360;DHT22;168;48.872;9.226;2023-06-26T05:48:51;22.80;72.80
360;DHT22;168;48.872;9.226;2023-06-26T05:51:23;22.80;72.70
360;DHT22;168;48.872;9.226;2023-06-26T05:53:51;22.90;72.60
360;DHT22;168;48.872;9.226;2023-06-26T05:56:19;23.00;72.60
360;DHT22;168;48.872;9.226;2023-06-26T05:58:50;23.00;72.50
360;DHT22;168;48.872;9.226;2023-06-26T06:01:18;23.10;72.30
360;DHT22;168;48.872;9.226;2023-06-26T06:03:46;23.20;71.90
360;DHT22;168;48.872;9.226;2023-06-26T06:06:16;23.40;71.40
360;DHT22;168;48.872;9.226;2023-06-26T06:08:43;23.40;71.00
360;DHT22;168;48.872;9.226;2023-06-26T06:11:11;23.50;71.00
360;DHT22;168;48.872;9.226;2023-06-26T06:13:38;23.60;70.60
360;DHT22;168;48.872;9.226;2023-06-26T06:16:08;23.70;70.80
360;DHT22;168;48.872;9.226;2023-06-26T06:18:35;23.80;70.50
360;DHT22;168;48.872;9.226;2023-06-26T06:21:02;23.90;71.20
360;DHT22;168;48.872;9.226;2023-06-26T06:23:30;23.90;70.90
360;DHT22;168;48.872;9.226;2023-06-26T06:25:57;24.00;72.50
360;DHT22;168;48.872;9.226;2023-06-26T06:28:40;24.10;71.00
360;DHT22;168;48.872;9.226;2023-06-26T06:31:12;24.10;71.50
360;DHT22;168;48.872;9.226;2023-06-26T06:33:43;24.20;74.50
360;DHT22;168;48.872;9.226;2023-06-26T06:36:12;24.30;70.90
360;DHT22;168;48.872;9.226;2023-06-26T06:38:42;24.40;69.80
360;DHT22;168;48.872;9.226;2023-06-26T06:41:10;24.40;69.60
360;DHT22;168;48.872;9.226;2023-06-26T06:43:38;24.50;69.70
360;DHT22;168;48.872;9.226;2023-06-26T06:46:06;24.60;69.50
360;DHT22;168;48.872;9.226;2023-06-26T06:48:42;24.70;69.10
360;DHT22;168;48.872;9.226;2023-06-26T06:51:25;24.70;69.00
360;DHT22;168;48.872;9.226;2023-06-26T06:53:56;24.80;68.90
360;DHT22;168;48.872;9.226;2023-06-26T06:56:23;24.90;68.70
360;DHT22;168;48.872;9.226;2023-06-26T06:58:51;25.00;68.50
360;DHT22;168;48.872;9.226;2023-06-26T07:01:18;25.10;68.00
360;DHT22;168;48.872;9.226;2023-06-26T07:03:47;25.20;67.90
360;DHT22;168;48.872;9.226;2023-06-26T07:06:14;25.30;67.50
360;DHT22;168;48.872;9.226;2023-06-26T07:08:42;25.40;67.10
360;DHT22;168;48.872;9.226;2023-06-26T07:11:10;25.50;66.40
360;DHT22;168;48.872;9.226;2023-06-26T07:13:46;25.60;66.10
360;DHT22;168;48.872;9.226;2023-06-26T07:16:15;25.80;65.90
360;DHT22;168;48.872;9.226;2023-06-26T07:18:42;25.90;65.60
360;DHT22;168;48.872;9.226;2023-06-26T07:21:11;26.00;65.60
360;DHT22;168;48.872;9.226;2023-06-26T07:23:39;26.10;65.10
360;DHT22;168;48.872;9.226;2023-06-26T07:26:07;26.10;64.90
360;DHT22;168;48.872;9.226;2023-06-26T07:28:34;26.20;64.60
360;DHT22;168;48.872;9.226;2023-06-26T07:31:02;26.40;64.30
360;DHT22;168;48.872;9.226;2023-06-26T07:33:33;26.40;63.90
360;DHT22;168;48.872;9.226;2023-06-26T07:36:02;26.50;64.00
360;DHT22;168;48.872;9.226;2023-06-26T07:38:31;26.80;63.20
360;DHT22;168;48.872;9.226;2023-06-26T07:40:59;26.90;62.30
360;DHT22;168;48.872;9.226;2023-06-26T07:43:27;27.00;62.70
360;DHT22;168;48.872;9.226;2023-06-26T07:45:54;26.90;63.00
360;DHT22;168;48.872;9.226;2023-06-26T07:48:24;26.90;62.70
360;DHT22;168;48.872;9.226;2023-06-26T07:50:52;26.90;62.70
360;DHT22;168;48.872;9.226;2023-06-26T07:53:19;27.00;63.10
360;DHT22;168;48.872;9.226;2023-06-26T07:55:48;27.00;63.00
360;DHT22;168;48.872;9.226;2023-06-26T07:58:16;27.20;62.10
360;DHT22;168;48.872;9.226;2023-06-26T08:00:44;27.60;61.30
360;DHT22;168;48.872;9.226;2023-06-26T08:03:11;27.60;61.30
360;DHT22;168;48.872;9.226;2023-06-26T08:05:39;27.60;61.60
360;DHT22;168;48.872;9.226;2023-06-26T08:08:07;27.70;60.90
360;DHT22;168;48.872;9.226;2023-06-26T08:10:34;27.80;61.00
360;DHT22;168;48.872;9.226;2023-06-26T08:13:03;27.90;60.60
360;DHT22;168;48.872;9.226;2023-06-26T08:15:30;28.00;60.10
360;DHT22;168;48.872;9.226;2023-06-26T08:17:57;28.10;60.40
360;DHT22;168;48.872;9.226;2023-06-26T08:20:25;28.20;59.90
360;DHT22;168;48.872;9.226;2023-06-26T08:22:52;28.30;60.10
360;DHT22;168;48.872;9.226;2023-06-26T08:25:20;28.40;58.50
360;DHT22;168;48.872;9.226;2023-06-26T08:27:47;28.50;58.60
360;DHT22;168;48.872;9.226;2023-06-26T08:30:16;28.60;58.40
360;DHT22;168;48.872;9.226;2023-06-26T08:32:44;28.80;57.90
360;DHT22;168;48.872;9.226;2023-06-26T08:35:11;28.90;58.00
360;DHT22;168;48.872;9.226;2023-06-26T08:37:39;29.00;57.00
360;DHT22;168;48.872;9.226;2023-06-26T08:40:07;29.10;56.70
360;DHT22;168;48.872;9.226;2023-06-26T08:42:35;29.00;56.40
360;DHT22;168;48.872;9.226;2023-06-26T08:45:02;29.00;57.00
360;DHT22;168;48.872;9.226;2023-06-26T08:47:35;28.90;57.40
360;DHT22;168;48.872;9.226;2023-06-26T08:50:29;29.00;57.50
360;DHT22;168;48.872;9.226;2023-06-26T08:53:04;29.30;57.20
360;DHT22;168;48.872;9.226;2023-06-26T08:55:35;29.40;57.00
360;DHT22;168;48.872;9.226;2023-06-26T08:58:05;29.60;56.80
360;DHT22;168;48.872;9.226;2023-06-26T09:00:33;29.60;56.60
360;DHT22;168;48.872;9.226;2023-06-26T09:03:03;29.80;56.20
360;DHT22;168;48.872;9.226;2023-06-26T09:05:31;29.90;55.70
360;DHT22;168;48.872;9.226;2023-06-26T09:07:59;29.80;56.20
360;DHT22;168;48.872;9.226;2023-06-26T09:10:26;29.80;55.50
360;DHT22;168;48.872;9.226;2023-06-26T09:12:56;29.80;56.50
360;DHT22;168;48.872;9.226;2023-06-26T09:15:24;29.80;56.70
360;DHT22;168;48.872;9.226;2023-06-26T09:17:58;29.90;56.70
360;DHT22;168;48.872;9.226;2023-06-26T09:20:29;29.90;56.60
360;DHT22;168;48.872;9.226;2023-06-26T09:23:04;30.00;56.40
360;DHT22;168;48.872;9.226;2023-06-26T09:25:34;30.10;56.40
360;DHT22;168;48.872;9.226;2023-06-26T09:28:05;30.20;56.40
360;DHT22;168;48.872;9.226;2023-06-26T09:30:33;30.30;55.80
360;DHT22;168;48.872;9.226;2023-06-26T09:33:13;30.30;56.00
360;DHT22;168;48.872;9.226;2023-06-26T09:35:42;30.50;55.80
360;DHT22;168;48.872;9.226;2023-06-26T09:38:10;30.50;55.20
360;DHT22;168;48.872;9.226;2023-06-26T09:40:39;30.60;54.80
360;DHT22;168;48.872;9.226;2023-06-26T09:43:09;30.70;55.30
360;DHT22;168;48.872;9.226;2023-06-26T09:45:39;30.70;54.20
360;DHT22;168;48.872;9.226;2023-06-26T09:48:07;30.70;54.50
360;DHT22;168;48.872;9.226;2023-06-26T09:50:35;30.90;54.20
360;DHT22;168;48.872;9.226;2023-06-26T09:53:09;30.90;53.60
360;DHT22;168;48.872;9.226;2023-06-26T09:55:37;30.90;53.80
360;DHT22;168;48.872;9.226;2023-06-26T09:58:06;30.70;54.30
360;DHT22;168;48.872;9.226;2023-06-26T10:00:33;30.70;55.00
360;DHT22;168;48.872;9.226;2023-06-26T10:03:01;30.80;55.30
360;DHT22;168;48.872;9.226;2023-06-26T10:05:28;30.90;55.10
360;DHT22;168;48.872;9.226;2023-06-26T10:07:56;30.90;55.10
360;DHT22;168;48.872;9.226;2023-06-26T10:10:25;30.90;55.00
360;DHT22;168;48.872;9.226;2023-06-26T10:13:01;30.80;55.20
360;DHT22;168;48.872;9.226;2023-06-26T10:15:31;30.90;55.20
360;DHT22;168;48.872;9.226;2023-06-26T10:18:01;30.90;55.70
360;DHT22;168;48.872;9.226;2023-06-26T10:20:30;30.80;55.80
360;DHT22;168;48.872;9.226;2023-06-26T10:23:01;30.70;55.90
360;DHT22;168;48.872;9.226;2023-06-26T10:25:31;30.60;56.20
360;DHT22;168;48.872;9.226;2023-06-26T10:28:02;30.40;56.90
360;DHT22;168;48.872;9.226;2023-06-26T10:30:33;30.40;57.10
360;DHT22;168;48.872;9.226;2023-06-26T10:33:03;30.50;56.70
360;DHT22;168;48.872;9.226;2023-06-26T10:35:31;30.50;57.00
360;DHT22;168;48.872;9.226;2023-06-26T10:38:03;30.40;56.70
360;DHT22;168;48.872;9.226;2023-06-26T10:40:42;30.00;56.90
360;DHT22;168;48.872;9.226;2023-06-26T10:43:12;29.60;57.20
360;DHT22;168;48.872;9.226;2023-06-26T10:45:44;29.50;58.00
360;DHT22;168;48.872;9.226;2023-06-26T10:48:14;29.50;58.40
360;DHT22;168;48.872;9.226;2023-06-26T10:50:42;29.60;58.20
360;DHT22;168;48.872;9.226;2023-06-26T10:53:12;29.50;58.50
360;DHT22;168;48.872;9.226;2023-06-26T10:55:49;29.50;58.70
360;DHT22;168;48.872;9.226;2023-06-26T10:58:28;29.60;58.90
360;DHT22;168;48.872;9.226;2023-06-26T11:01:14;29.90;58.80
360;DHT22;168;48.872;9.226;2023-06-26T11:03:43;29.90;58.30
360;DHT22;168;48.872;9.226;2023-06-26T11:06:13;29.80;58.90
360;DHT22;168;48.872;9.226;2023-06-26T11:08:47;29.80;59.40
360;DHT22;168;48.872;9.226;2023-06-26T11:11:17;29.70;59.20
360;DHT22;168;48.872;9.226;2023-06-26T11:13:45;29.60;59.60
360;DHT22;168;48.872;9.226;2023-06-26T11:16:13;29.80;60.40
360;DHT22;168;48.872;9.226;2023-06-26T11:18:41;30.00;60.50
360;DHT22;168;48.872;9.226;2023-06-26T11:21:10;30.20;60.10
360;DHT22;168;48.872;9.226;2023-06-26T11:23:40;30.20;60.10
360;DHT22;168;48.872;9.226;2023-06-26T11:26:15;30.30;59.60
360;DHT22;168;48.872;9.226;2023-06-26T11:28:51;30.40;59.80
360;DHT22;168;48.872;9.226;2023-06-26T11:31:24;30.30;59.60
360;DHT22;168;48.872;9.226;2023-06-26T11:33:53;30.00;59.70
360;DHT22;168;48.872;9.226;2023-06-26T11:36:23;29.80;60.70
360;DHT22;168;48.872;9.226;2023-06-26T11:38:53;29.70;61.10
360;DHT22;168;48.872;9.226;2023-06-26T11:41:22;29.70;61.70
360;DHT22;168;48.872;9.226;2023-06-26T11:43:51;29.60;60.90
360;DHT22;168;48.872;9.226;2023-06-26T11:46:21;29.60;61.40
360;DHT22;168;48.872;9.226;2023-06-26T11:48:49;29.60;61.00
360;DHT22;168;48.872;9.226;2023-06-26T11:51:17;29.70;61.80
360;DHT22;168;48.872;9.226;2023-06-26T11:53:46;29.80;62.00
360;DHT22;168;48.872;9.226;2023-06-26T11:56:15;29.90;62.00
360;DHT22;168;48.872;9.226;2023-06-26T11:58:57;30.10;62.20
360;DHT22;168;48.872;9.226;2023-06-26T12:01:27;30.30;62.40
360;DHT22;168;48.872;9.226;2023-06-26T12:03:59;30.40;61.20
360;DHT22;168;48.872;9.226;2023-06-26T12:06:29;30.40;61.40
360;DHT22;168;48.872;9.226;2023-06-26T12:08:58;30.20;61.80
360;DHT22;168;48.872;9.226;2023-06-26T12:11:27;30.00;62.00
360;DHT22;168;48.872;9.226;2023-06-26T12:13:58;30.00;62.60
360;DHT22;168;48.872;9.226;2023-06-26T12:16:26;29.90;62.60
360;DHT22;168;48.872;9.226;2023-06-26T12:18:58;29.80;63.20
360;DHT22;168;48.872;9.226;2023-06-26T12:21:45;29.50;63.50
360;DHT22;168;48.872;9.226;2023-06-26T12:24:14;29.30;63.20
360;DHT22;168;48.872;9.226;2023-06-26T12:26:43;29.10;63.90
360;DHT22;168;48.872;9.226;2023-06-26T12:29:13;29.10;64.40
360;DHT22;168;48.872;9.226;2023-06-26T12:31:42;29.20;64.60
360;DHT22;168;48.872;9.226;2023-06-26T12:34:10;29.30;63.70
360;DHT22;168;48.872;9.226;2023-06-26T12:36:40;29.40;63.40
360;DHT22;168;48.872;9.226;2023-06-26T12:39:10;29.50;63.50
360;DHT22;168;48.872;9.226;2023-06-26T12:41:45;29.40;62.80
360;DHT22;168;48.872;9.226;2023-06-26T12:44:26;29.40;63.30
360;DHT22;168;48.872;9.226;2023-06-26T12:46:55;29.30;63.60
360;DHT22;168;48.872;9.226;2023-06-26T12:49:30;29.40;63.90
360;DHT22;168;48.872;9.226;2023-06-26T12:51:58;29.50;63.00
360;DHT22;168;48.872;9.226;2023-06-26T12:54:26;29.40;63.30
360;DHT22;168;48.872;9.226;2023-06-26T12:56:53;29.50;63.50
360;DHT22;168;48.872;9.226;2023-06-26T12:59:24;29.50;63.20
360;DHT22;168;48.872;9.226;2023-06-26T13:01:51;29.60;62.40
360;DHT22;168;48.872;9.226;2023-06-26T13:04:19;29.60;62.40
360;DHT22;168;48.872;9.226;2023-06-26T13:06:47;29.70;62.30
360;DHT22;168;48.872;9.226;2023-06-26T13:09:14;29.80;62.40
360;DHT22;168;48.872;9.226;2023-06-26T13:11:42;29.80;61.40
360;DHT22;168;48.872;9.226;2023-06-26T13:14:09;29.70;61.90
360;DHT22;168;48.872;9.226;2023-06-26T13:16:39;29.70;61.20
360;DHT22;168;48.872;9.226;2023-06-26T13:19:06;29.70;60.90
360;DHT22;168;48.872;9.226;2023-06-26T13:21:34;29.70;61.00
360;DHT22;168;48.872;9.226;2023-06-26T13:24:02;29.60;59.50
360;DHT22;168;48.872;9.226;2023-06-26T13:26:31;29.50;58.90
360;DHT22;168;48.872;9.226;2023-06-26T13:28:58;29.50;59.00
360;DHT22;168;48.872;9.226;2023-06-26T13:31:25;29.70;59.00
360;DHT22;168;48.872;9.226;2023-06-26T13:33:57;29.90;58.50
360;DHT22;168;48.872;9.226;2023-06-26T13:36:25;29.90;57.80
360;DHT22;168;48.872;9.226;2023-06-26T13:38:53;29.70;58.00
360;DHT22;168;48.872;9.226;2023-06-26T13:41:22;29.70;57.80
360;DHT22;168;48.872;9.226;2023-06-26T13:43:50;29.70;57.70
360;DHT22;168;48.872;9.226;2023-06-26T13:46:18;29.70;56.50
360;DHT22;168;48.872;9.226;2023-06-26T13:48:56;29.80;56.60
360;DHT22;168;48.872;9.226;2023-06-26T13:51:24;29.80;55.80
360;DHT22;168;48.872;9.226;2023-06-26T13:53:52;29.80;56.30
360;DHT22;168;48.872;9.226;2023-06-26T13:56:21;30.10;55.80
360;DHT22;168;48.872;9.226;2023-06-26T13:58:50;30.30;55.80
360;DHT22;168;48.872;9.226;2023-06-26T14:01:18;30.50;55.20
360;DHT22;168;48.872;9.226;2023-06-26T14:03:47;30.60;55.30
360;DHT22;168;48.872;9.226;2023-06-26T14:06:16;30.70;54.20
360;DHT22;168;48.872;9.226;2023-06-26T14:08:44;30.70;54.60
360;DHT22;168;48.872;9.226;2023-06-26T14:11:11;30.50;53.90
360;DHT22;168;48.872;9.226;2023-06-26T14:13:38;30.40;53.90
360;DHT22;168;48.872;9.226;2023-06-26T14:16:06;30.20;54.60
360;DHT22;168;48.872;9.226;2023-06-26T14:18:34;30.30;54.30
360;DHT22;168;48.872;9.226;2023-06-26T14:21:02;30.30;54.00
360;DHT22;168;48.872;9.226;2023-06-26T14:23:31;30.50;54.30
360;DHT22;168;48.872;9.226;2023-06-26T14:25:59;30.50;53.80
360;DHT22;168;48.872;9.226;2023-06-26T14:28:33;30.50;53.70
360;DHT22;168;48.872;9.226;2023-06-26T14:31:03;30.40;54.10
360;DHT22;168;48.872;9.226;2023-06-26T14:33:30;30.50;54.20
360;DHT22;168;48.872;9.226;2023-06-26T14:35:58;30.80;54.10
360;DHT22;168;48.872;9.226;2023-06-26T14:38:25;31.00;53.70
360;DHT22;168;48.872;9.226;2023-06-26T14:40:54;31.00;52.90
360;DHT22;168;48.872;9.226;2023-06-26T14:43:22;31.00;52.70
360;DHT22;168;48.872;9.226;2023-06-26T14:45:50;30.80;53.30
360;DHT22;168;48.872;9.226;2023-06-26T14:48:17;30.60;53.50
360;DHT22;168;48.872;9.226;2023-06-26T14:50:46;30.60;54.20
360;DHT22;168;48.872;9.226;2023-06-26T14:53:17;30.50;54.10
360;DHT22;168;48.872;9.226;2023-06-26T14:55:44;30.50;53.80
360;DHT22;168;48.872;9.226;2023-06-26T14:58:13;30.30;53.80
360;DHT22;168;48.872;9.226;2023-06-26T15:00:40;30.30;53.70
360;DHT22;168;48.872;9.226;2023-06-26T15:03:09;30.40;54.40
360;DHT22;168;48.872;9.226;2023-06-26T15:05:37;30.30;53.80
360;DHT22;168;48.872;9.226;2023-06-26T15:08:04;30.30;53.80
360;DHT22;168;48.872;9.226;2023-06-26T15:10:32;30.50;53.20
360;DHT22;168;48.872;9.226;2023-06-26T15:12:59;30.60;53.50
360;DHT22;168;48.872;9.226;2023-06-26T15:15:28;30.70;52.80
360;DHT22;168;48.872;9.226;2023-06-26T15:17:58;30.80;53.00
360;DHT22;168;48.872;9.226;2023-06-26T15:20:28;30.90;52.70
360;DHT22;168;48.872;9.226;2023-06-26T15:23:00;30.80;52.80
360;DHT22;168;48.872;9.226;2023-06-26T15:25:31;30.70;52.80
360;DHT22;168;48.872;9.226;2023-06-26T15:28:01;30.40;53.30
360;DHT22;168;48.872;9.226;2023-06-26T15:30:30;30.20;53.90
360;DHT22;168;48.872;9.226;2023-06-26T15:32:57;30.00;54.20
360;DHT22;168;48.872;9.226;2023-06-26T15:35:24;30.10;54.20
360;DHT22;168;48.872;9.226;2023-06-26T15:37:52;30.10;53.70
360;DHT22;168;48.872;9.226;2023-06-26T15:40:20;30.00;54.00
360;DHT22;168;48.872;9.226;2023-06-26T15:42:48;29.90;54.20
360;DHT22;168;48.872;9.226;2023-06-26T15:45:17;30.10;54.10
360;DHT22;168;48.872;9.226;2023-06-26T15:47:46;30.20;54.20
360;DHT22;168;48.872;9.226;2023-06-26T15:50:13;29.90;54.00
360;DHT22;168;48.872;9.226;2023-06-26T15:52:40;29.60;54.80
360;DHT22;168;48.872;9.226;2023-06-26T15:55:08;29.30;55.20
360;DHT22;168;48.872;9.226;2023-06-26T15:57:36;29.10;55.60
360;DHT22;168;48.872;9.226;2023-06-26T16:00:04;29.10;55.90
360;DHT22;168;48.872;9.226;2023-06-26T16:02:32;29.00;55.90
360;DHT22;168;48.872;9.226;2023-06-26T16:05:01;28.80;55.70
360;DHT22;168;48.872;9.226;2023-06-26T16:07:29;28.70;56.50
360;DHT22;168;48.872;9.226;2023-06-26T16:09:56;28.60;56.50
360;DHT22;168;48.872;9.226;2023-06-26T16:12:24;28.60;56.80
360;DHT22;168;48.872;9.226;2023-06-26T16:14:52;28.50;56.50
360;DHT22;168;48.872;9.226;2023-06-26T16:17:19;28.40;56.70
360;DHT22;168;48.872;9.226;2023-06-26T16:19:46;28.40;56.40
360;DHT22;168;48.872;9.226;2023-06-26T16:22:23;28.40;56.50
360;DHT22;168;48.872;9.226;2023-06-26T16:24:50;28.30;55.80
360;DHT22;168;48.872;9.226;2023-06-26T16:27:18;28.30;56.30
360;DHT22;168;48.872;9.226;2023-06-26T16:29:47;28.40;56.20
360;DHT22;168;48.872;9.226;2023-06-26T16:32:30;28.70;55.90
360;DHT22;168;48.872;9.226;2023-06-26T16:35:14;28.90;54.90
360;DHT22;168;48.872;9.226;2023-06-26T16:37:44;29.10;53.90
360;DHT22;168;48.872;9.226;2023-06-26T16:40:11;29.10;53.10
360;DHT22;168;48.872;9.226;2023-06-26T16:42:40;29.00;52.30
360;DHT22;168;48.872;9.226;2023-06-26T16:45:09;28.80;52.50
360;DHT22;168;48.872;9.226;2023-06-26T16:47:36;28.80;51.60